Time;durP1;ratioP1;P1;durP2;ratioP2;P2;SDS_P1;SDS_P2;PMS_P1;PMS_P2;Temp;Humidity;BMP_temperature;BMP_pressure;BME280_temperature;BME280_humidity;BME280_pressure;Samples;Min_cycle;Max_cycle;Signal;HPM_P1;HPM_P2
2022/09/12 00:04:38;;;;;;;0.73;0.60;;;;;;;11.48;100.00;102224.22;10324128;28;20046;-78
2022/09/12 00:09:40;;;;;;;1.17;0.68;;;;;;;11.59;100.00;102215.28;10328765;28;20070;-78
2022/09/12 00:14:47;;;;;;;2.22;0.75;;;;;;;11.65;100.00;102218.91;10332737;28;20085;-78
2022/09/12 00:19:48;;;;;;;1.98;1.08;;;;;;;12.17;100.00;102243.50;10326590;28;20057;-78
2022/09/12 00:24:50;;;;;;;2.00;1.38;;;;;;;12.23;100.00;102251.50;10332384;28;20528;-78
2022/09/12 00:29:52;;;;;;;1.88;0.95;;;;;;;12.03;100.00;102238.63;10314852;28;20051;-78
2022/09/12 00:34:54;;;;;;;1.20;0.93;;;;;;;11.94;100.00;102235.66;10318793;28;20771;-78
2022/09/12 00:39:55;;;;;;;0.93;0.50;;;;;;;11.62;100.00;102214.50;10285222;28;20138;-78
2022/09/12 00:44:57;;;;;;;0.40;0.40;;;;;;;11.58;100.00;102207.44;10308928;28;20038;-78
2022/09/12 00:50:05;;;;;;;0.45;0.32;;;;;;;11.65;100.00;102194.00;10332228;28;20064;-78
2022/09/12 00:55:18;;;;;;;1.58;0.50;;;;;;;11.75;100.00;102195.28;10318569;28;20126;-78
2022/09/12 01:00:23;;;;;;;0.57;0.45;;;;;;;11.56;100.00;102189.31;10332572;28;20045;-78
2022/09/12 01:05:27;;;;;;;0.95;0.57;;;;;;;11.53;100.00;102175.41;10335130;28;20089;-78
2022/09/12 01:10:29;;;;;;;1.55;0.88;;;;;;;11.42;100.00;102160.34;10323173;28;20064;-78
2022/09/12 01:15:31;;;;;;;0.57;0.57;;;;;;;11.43;100.00;102167.25;10313649;28;20061;-78
2022/09/12 01:21:11;;;;;;;0.90;0.80;;;;;;;11.31;100.00;102159.00;10331717;28;20050;-78
2022/09/12 01:26:42;;;;;;;0.43;0.40;;;;;;;11.10;100.00;102158.94;10320961;28;20117;-78
2022/09/12 01:32:12;;;;;;;;;;;;;;;10.95;100.00;102159.16;10319364;28;20482;-78
2022/09/12 01:37:33;;;;;;;0.20;0.20;;;;;;;10.86;100.00;102156.16;10292871;28;19922;-78
2022/09/12 01:43:16;;;;;;;0.47;0.28;;;;;;;10.74;100.00;102157.41;10305131;28;20077;-78
2022/09/12 01:48:26;;;;;;;0.90;0.20;;;;;;;10.72;100.00;102156.44;10331177;28;20446;-79
2022/09/12 01:53:36;;;;;;;0.20;0.20;;;;;;;10.78;100.00;102142.94;10329019;28;20529;-78
2022/09/12 01:58:42;;;;;;;;;;;;;;;10.86;100.00;102145.84;10323796;28;20041;-78
2022/09/12 02:03:54;;;;;;;1.50;0.28;;;;;;;10.67;100.00;102150.19;10339274;28;19957;-78
2022/09/12 02:09:03;;;;;;;0.40;0.30;;;;;;;10.68;100.00;102139.06;10333022;28;20135;-79
2022/09/12 02:14:10;;;;;;;0.68;0.63;;;;;;;10.57;100.00;102142.84;10324193;28;20133;-78
2022/09/12 02:19:21;;;;;;;1.23;0.50;;;;;;;10.39;100.00;102133.44;10331995;28;20121;-78
2022/09/12 02:24:29;;;;;;;0.80;0.52;;;;;;;10.31;100.00;102132.19;10332369;28;20070;-78
2022/09/12 02:29:30;;;;;;;1.65;0.68;;;;;;;10.32;100.00;102128.78;10331932;28;20070;-78
2022/09/12 02:34:54;;;;;;;2.05;0.50;;;;;;;10.39;100.00;102123.13;10315019;28;20537;-78
2022/09/12 02:39:56;;;;;;;0.03;0.03;;;;;;;10.29;100.00;102118.34;10313327;28;20173;-78
2022/09/12 02:44:58;;;;;;;0.15;0.15;;;;;;;10.30;100.00;102117.56;10332788;28;20042;-77
2022/09/12 02:50:03;;;;;;;0.80;0.25;;;;;;;10.37;100.00;102113.56;10338044;28;20147;-78
2022/09/12 02:55:06;;;;;;;0.85;0.60;;;;;;;10.23;100.00;102110.34;10333792;28;20042;-78
2022/09/12 03:00:09;;;;;;;3.78;1.17;;;;;;;10.16;100.00;102099.72;10334691;28;20557;-78
2022/09/12 03:05:25;;;;;;;0.30;0.30;;;;;;;9.89;100.00;102098.44;10329468;28;20081;-77
2022/09/12 03:10:48;;;;;;;0.68;0.63;;;;;;;9.84;100.00;102101.69;10327583;28;20038;-77
2022/09/12 03:16:10;;;;;;;0.50;0.40;;;;;;;9.64;100.00;102102.41;10322397;28;20034;-77
2022/09/12 03:21:20;;;;;;;0.40;0.20;;;;;;;9.65;100.00;102094.75;10331105;28;20047;-78
2022/09/12 03:26:51;;;;;;;0.82;0.30;;;;;;;9.67;100.00;102092.25;10323194;28;20063;-78
2022/09/12 03:31:56;;;;;;;0.10;0.10;;;;;;;9.66;100.00;102080.19;10326958;28;20082;-78
2022/09/12 03:36:58;;;;;;;0.75;0.50;;;;;;;9.58;100.00;102084.97;10317558;28;20502;-78
2022/09/12 03:41:59;;;;;;;0.30;0.22;;;;;;;9.52;100.00;102082.13;10325454;28;20524;-78
2022/09/12 03:47:01;;;;;;;0.57;0.40;;;;;;;9.45;100.00;102080.03;10303025;28;20042;-78
2022/09/12 03:52:04;;;;;;;0.65;0.47;;;;;;;9.48;100.00;102070.78;10317116;28;20046;-78
2022/09/12 03:57:05;;;;;;;0.98;0.85;;;;;;;9.58;100.00;102071.22;10334795;28;20463;-78
2022/09/12 04:02:10;;;;;;;0.00;0.00;;;;;;;9.39;100.00;102067.75;10321496;28;20066;-78
2022/09/12 04:07:12;;;;;;;0.38;0.35;;;;;;;9.38;100.00;102072.84;10337029;28;20046;-77
2022/09/12 04:12:13;;;;;;;0.30;0.30;;;;;;;9.43;100.00;102076.50;10336255;28;20506;-77
2022/09/12 04:17:15;;;;;;;0.35;0.22;;;;;;;9.47;100.00;102069.03;10335631;28;20046;-77
2022/09/12 04:22:18;;;;;;;0.40;0.40;;;;;;;9.53;100.00;102074.47;10314504;28;20038;-78
2022/09/12 04:27:19;;;;;;;2.28;0.77;;;;;;;9.99;100.00;102085.22;10336576;28;20057;-78
2022/09/12 04:32:21;;;;;;;0.82;0.65;;;;;;;9.60;100.00;102079.91;10335238;28;20038;-77
2022/09/12 04:37:25;;;;;;;0.30;0.28;;;;;;;9.53;100.00;102074.47;10336266;28;20045;-78
2022/09/12 04:42:26;;;;;;;0.10;0.10;;;;;;;9.42;100.00;102078.19;10335575;28;20150;-76
2022/09/12 04:47:28;;;;;;;0.22;0.22;;;;;;;9.60;100.00;102079.91;10335268;28;20121;-76
2022/09/12 04:52:30;;;;;;;1.92;0.85;;;;;;;9.68;100.00;102078.59;10316779;28;20089;-78
2022/09/12 04:57:32;;;;;;;3.55;0.65;;;;;;;9.74;100.00;102070.28;10328129;28;20043;-77
2022/09/12 05:02:34;;;;;;;1.73;0.77;;;;;;;10.06;100.00;102082.09;10304584;28;20043;-78
2022/09/12 05:07:36;;;;;;;1.15;0.88;;;;;;;9.92;100.00;102075.44;10327544;28;20046;-78
2022/09/12 05:12:38;;;;;;;2.00;0.90;;;;;;;9.97;100.00;102113.47;10326667;28;20074;-78
2022/09/12 05:17:39;;;;;;;1.92;1.00;;;;;;;9.98;100.00;102111.75;10312125;28;20053;-78
2022/09/12 05:22:43;;;;;;;2.00;0.90;;;;;;;10.05;100.00;102108.66;10294124;28;20130;-77
2022/09/12 05:27:44;;;;;;;1.50;0.73;;;;;;;10.17;100.00;102110.94;10297084;28;20409;-78
2022/09/12 05:32:51;;;;;;;0.43;0.22;;;;;;;10.28;100.00;102114.88;10307875;28;20126;-78
2022/09/12 05:38:06;;;;;;;0.60;0.28;;;;;;;10.44;100.00;102124.25;10292698;28;20074;-77
2022/09/12 05:43:11;;;;;;;0.85;0.60;;;;;;;10.74;100.00;102118.72;10284077;28;20414;-78
2022/09/12 05:48:12;;;;;;;0.85;0.47;;;;;;;10.97;100.00;102130.84;10292441;28;20072;-79
2022/09/12 05:53:14;;;;;;;0.38;0.38;;;;;;;11.17;100.00;102134.31;10317273;28;20146;-77
2022/09/12 05:58:15;;;;;;;1.00;0.60;;;;;;;11.35;100.00;102142.84;10319030;28;20168;-78
2022/09/12 06:03:17;;;;;;;3.67;0.80;;;;;;;11.63;100.00;102154.34;10285084;28;20098;-78
2022/09/12 06:08:19;;;;;;;2.40;1.20;;;;;;;11.76;100.00;102155.72;10333220;28;20056;-78
2022/09/12 06:13:20;;;;;;;2.28;1.13;;;;;;;11.90;100.00;102166.59;10332904;28;20073;-78
2022/09/12 06:18:22;;;;;;;2.28;0.95;;;;;;;12.01;100.00;102165.38;10332974;28;20078;-78
2022/09/12 06:23:23;;;;;;;3.58;1.15;;;;;;;12.15;100.00;102162.47;10305296;28;20073;-79
2022/09/12 06:28:26;;;;;;;5.20;2.72;;;;;;;12.29;100.00;102170.75;10307926;28;20498;-78
2022/09/12 06:33:27;;;;;;;2.85;1.85;;;;;;;12.38;100.00;102169.41;10319740;28;20121;-78
2022/09/12 06:38:30;;;;;;;0.80;0.80;;;;;;;12.54;100.00;102164.84;10300098;28;20146;-78
2022/09/12 06:43:32;;;;;;;4.97;3.03;;;;;;;12.76;100.00;102160.47;10301924;28;20070;-78
2022/09/12 06:48:34;;;;;;;3.13;1.75;;;;;;;12.78;100.00;102151.03;10305884;28;20129;-78
2022/09/12 06:53:43;;;;;;;9.23;2.78;;;;;;;12.95;100.00;102147.38;10330454;28;20470;-78
2022/09/12 06:58:46;;;;;;;4.85;1.45;;;;;;;12.99;100.00;102138.88;10299941;28;20129;-78
2022/09/12 07:03:59;;;;;;;6.03;1.95;;;;;;;13.24;100.00;102128.53;10327746;28;20498;-78
2022/09/12 07:09:03;;;;;;;3.08;1.95;;;;;;;13.35;100.00;102115.97;10327906;28;20125;-79
2022/09/12 07:14:06;;;;;;;2.00;1.55;;;;;;;13.46;100.00;102104.28;10360316;28;20042;-78
2022/09/12 07:19:09;;;;;;;7.07;2.72;;;;;;;13.55;100.00;102109.78;10352324;28;20046;-78
2022/09/12 07:24:11;;;;;;;2.53;0.90;;;;;;;13.66;100.00;102080.78;10323461;28;20063;-78
2022/09/12 07:29:15;;;;;;;4.80;2.22;;;;;;;13.68;100.00;102071.31;10317162;28;20066;-78
2022/09/12 07:34:37;;;;;;;1.92;1.33;;;;;;;13.87;100.00;102060.72;10330347;28;20393;-79
2022/09/12 07:39:38;;;;;;;2.47;2.20;;;;;;;14.54;100.00;102044.50;10326207;28;20165;-79
2022/09/12 07:44:40;;;;;;;2.15;0.98;;;;;;;14.71;100.00;102009.56;10323335;28;20058;-79
2022/09/12 07:49:41;;;;;;;1.23;0.80;;;;;;;14.85;100.00;101973.63;10287097;28;20138;-78
2022/09/12 07:54:43;;;;;;;4.25;1.70;;;;;;;15.18;100.00;101935.47;10307590;28;20122;-79
2022/09/12 07:59:45;;;;;;;2.67;1.80;;;;;;;15.54;100.00;101873.06;10291897;28;20133;-77
2022/09/12 08:04:53;;;;;;;2.05;1.30;;;;;;;15.45;100.00;101758.59;10309798;28;20498;-78
2022/09/12 08:09:55;;;;;;;3.17;1.45;;;;;;;15.77;100.00;101755.75;10307384;28;20504;-78
2022/09/12 08:14:57;;;;;;;4.72;2.17;;;;;;;17.23;100.00;101713.72;10303355;28;20038;-77
2022/09/12 08:19:58;;;;;;;3.63;1.88;;;;;;;17.77;100.00;101663.00;10310855;28;20137;-77
2022/09/12 08:25:00;;;;;;;4.40;1.88;;;;;;;18.30;100.00;101641.66;10308894;28;20053;-77
2022/09/12 08:30:04;;;;;;;2.42;1.17;;;;;;;18.21;100.00;101622.50;10297877;28;20141;-78
2022/09/12 08:35:06;;;;;;;2.88;2.05;;;;;;;18.45;100.00;101622.59;10294740;28;20051;-77
2022/09/12 08:40:15;;;;;;;3.65;1.75;;;;;;;18.21;100.00;101637.25;10304930;28;20137;-78
2022/09/12 08:45:25;;;;;;;5.10;1.83;;;;;;;18.13;100.00;101628.53;10301895;28;20054;-78
2022/09/12 08:50:27;;;;;;;4.80;2.40;;;;;;;18.98;100.00;101621.09;10312544;28;20042;-77
2022/09/12 08:55:44;;;;;;;3.90;2.42;;;;;;;19.27;100.00;101600.25;10307956;28;20045;-77
2022/09/12 09:01:22;;;;;;;4.70;2.20;;;;;;;19.94;100.00;101595.88;10286559;28;20046;-78
2022/09/12 09:06:58;;;;;;;4.10;1.48;;;;;;;20.23;100.00;101587.06;10305125;28;20046;-78
2022/09/12 09:12:11;;;;;;;3.15;1.25;;;;;;;20.23;100.00;101579.22;10311267;28;20122;-78
2022/09/12 09:17:54;;;;;;;2.33;1.17;;;;;;;20.49;100.00;101578.25;10317395;28;20052;-78
2022/09/12 09:23:09;;;;;;;2.47;1.65;;;;;;;20.68;100.00;101559.81;10304305;28;20141;-78
2022/09/12 09:28:17;;;;;;;4.25;1.50;;;;;;;20.25;100.00;101559.16;10300346;28;20062;-77
2022/09/12 09:33:22;;;;;;;2.92;1.77;;;;;;;21.12;100.00;101549.97;10306312;28;20138;-78
2022/09/12 09:38:33;;;;;;;1.00;0.93;;;;;;;21.36;100.00;101533.16;10306124;28;20446;-78
2022/09/12 09:43:36;;;;;;;3.17;2.45;;;;;;;21.50;100.00;101531.28;10290746;28;20045;-78
2022/09/12 09:48:46;;;;;;;3.60;2.33;;;;;;;22.07;100.00;101526.34;10304170;28;20081;-77
2022/09/12 09:53:55;;;;;;;1.27;0.98;;;;;;;21.73;100.00;101518.88;10302907;28;20410;-78
2022/09/12 09:59:10;;;;;;;0.60;0.57;;;;;;;22.43;100.00;101516.28;10310951;28;20049;-78
2022/09/12 10:04:18;;;;;;;1.83;1.27;;;;;;;22.40;100.00;101506.69;10314767;28;20051;-78
2022/09/12 10:09:23;;;;;;;1.70;1.00;;;;;;;22.52;100.00;101502.16;10328829;28;20458;-78
2022/09/12 10:14:40;;;;;;;0.77;0.60;;;;;;;23.14;100.00;101499.44;10340262;28;20367;-78
2022/09/12 10:19:42;;;;;;;1.25;0.90;;;;;;;22.95;100.00;101499.72;10322477;28;20046;-78
2022/09/12 10:24:58;;;;;;;1.38;0.80;;;;;;;22.64;100.00;101475.72;10311747;28;20129;-78
2022/09/12 10:30:04;;;;;;;2.83;1.02;;;;;;;23.28;100.00;101476.44;10295661;28;20427;-77
2022/09/12 10:35:17;;;;;;;2.15;1.33;;;;;;;22.40;100.00;101480.44;10320273;28;20443;-77
2022/09/12 10:40:28;;;;;;;2.30;1.25;;;;;;;22.72;100.00;101460.72;10322346;28;20077;-78
2022/09/12 10:45:35;;;;;;;1.25;1.00;;;;;;;23.58;100.00;101447.81;10323374;28;20050;-78
2022/09/12 10:50:41;;;;;;;0.55;0.55;;;;;;;23.58;100.00;101446.94;10316458;28;20150;-77
2022/09/12 10:56:14;;;;;;;1.77;0.85;;;;;;;22.73;100.00;101436.19;10305945;28;20133;-78
2022/09/12 11:01:35;;;;;;;0.60;0.38;;;;;;;24.11;100.00;101435.34;10311063;28;20129;-77
2022/09/12 11:06:56;;;;;;;0.75;0.52;;;;;;;23.12;100.00;101446.88;10311708;28;20054;-78
2022/09/12 11:12:06;;;;;;;0.60;0.50;;;;;;;23.56;100.00;101430.34;10290617;28;20727;-77
2022/09/12 11:17:26;;;;;;;1.15;0.73;;;;;;;23.26;100.00;101424.78;10296679;28;20043;-77
2022/09/12 11:23:11;;;;;;;0.22;0.22;;;;;;;23.98;100.00;101419.84;10309647;28;20604;-77
2022/09/12 11:28:51;;;;;;;0.57;0.55;;;;;;;23.98;100.00;101411.09;10317253;28;20498;-78
2022/09/12 11:33:59;;;;;;;1.25;0.68;;;;;;;23.54;100.00;101408.47;10293766;28;20059;-78
2022/09/12 11:39:12;;;;;;;2.13;0.90;;;;;;;24.36;100.00;101394.41;10318557;28;20051;-77
2022/09/12 11:44:24;;;;;;;1.15;0.80;;;;;;;24.14;100.00;101394.03;10321457;28;20053;-77
2022/09/12 11:49:38;;;;;;;0.55;0.22;;;;;;;23.70;100.00;101388.84;10293482;28;20405;-78
2022/09/12 11:54:59;;;;;;;1.27;0.65;;;;;;;23.65;100.00;101390.69;10316081;28;20427;-77
2022/09/12 12:00:07;;;;;;;0.32;0.30;;;;;;;23.88;100.00;101391.94;10300624;28;20121;-77
2022/09/12 12:05:27;;;;;;;1.00;0.77;;;;;;;23.52;100.00;101389.22;10288582;28;20046;-77
2022/09/12 12:10:39;;;;;;;0.98;0.43;;;;;;;23.68;100.00;101385.38;10316167;28;20077;-78
2022/09/12 12:15:47;;;;;;;1.20;0.70;;;;;;;24.22;100.00;101386.81;10304672;28;20118;-77
2022/09/12 12:20:50;;;;;;;0.38;0.22;;;;;;;23.67;100.00;101396.78;10314228;28;20050;-76
2022/09/12 12:25:56;;;;;;;1.02;0.50;;;;;;;23.55;100.00;101389.16;10316048;28;20047;-78
2022/09/12 12:31:00;;;;;;;5.32;0.52;;;;;;;23.51;100.00;101382.22;10309744;28;20055;-77
2022/09/12 12:36:06;;;;;;;0.60;0.60;;;;;;;23.60;100.00;101377.63;10319873;28;20455;-76
2022/09/12 12:41:17;;;;;;;0.68;0.47;;;;;;;23.60;100.00;101371.50;10316107;28;20078;-77
2022/09/12 12:46:21;;;;;;;0.55;0.40;;;;;;;24.03;100.00;101373.22;10309155;28;20514;-78
2022/09/12 12:51:34;;;;;;;0.40;0.30;;;;;;;23.66;100.00;101363.47;10304736;28;20478;-78
2022/09/12 12:56:40;;;;;;;0.40;0.40;;;;;;;24.00;100.00;101352.25;10313853;28;20039;-78
2022/09/12 13:01:49;;;;;;;1.20;0.32;;;;;;;23.99;100.00;101347.00;10297225;28;20117;-79
2022/09/12 13:07:00;;;;;;;0.35;0.20;;;;;;;23.44;100.00;101340.28;10307716;28;20051;-78
2022/09/12 13:12:20;;;;;;;0.35;0.20;;;;;;;23.60;100.00;101335.53;10288803;28;20050;-78
2022/09/12 13:17:38;;;;;;;0.30;0.30;;;;;;;23.35;100.00;101323.84;10305067;28;20047;-78
2022/09/12 13:22:44;;;;;;;0.35;0.35;;;;;;;23.89;100.00;101314.75;10299284;28;20506;-78
2022/09/12 13:27:59;;;;;;;1.98;0.47;;;;;;;23.85;100.00;101313.09;10284669;28;20042;-79
2022/09/12 13:33:12;;;;;;;0.73;0.30;;;;;;;23.70;100.00;101315.19;10310707;28;20073;-78
2022/09/12 13:39:01;;;;;;;1.02;0.57;;;;;;;23.64;100.00;101304.81;10300095;28;20101;-79
2022/09/12 13:44:08;;;;;;;0.22;0.20;;;;;;;23.72;100.00;101297.59;10298332;28;20053;-78
2022/09/12 13:49:29;;;;;;;0.43;0.43;;;;;;;23.46;100.00;101279.75;10281561;28;20151;-78
2022/09/12 13:54:32;;;;;;;1.30;0.52;;;;;;;23.56;100.00;101277.81;10327853;28;20152;-78
2022/09/12 13:59:38;;;;;;;0.05;0.05;;;;;;;23.54;100.00;101275.19;10318638;28;20081;-78
2022/09/12 14:10:19;;;;;;;0.35;0.30;;;;;;;23.70;99.22;101257.31;10306439;28;20061;-78
2022/09/12 14:15:26;;;;;;;0.27;0.27;;;;;;;23.57;100.00;101245.34;10296273;28;20062;-78
2022/09/12 14:20:34;;;;;;;0.65;0.32;;;;;;;23.62;100.00;101248.75;10296858;28;20574;-77
2022/09/12 14:25:41;;;;;;;0.08;0.08;;;;;;;23.49;100.00;101242.03;10303625;28;20101;-79
2022/09/12 14:31:11;;;;;;;0.77;0.70;;;;;;;23.56;97.40;101238.38;10300803;28;20069;-78
2022/09/12 14:36:37;;;;;;;0.28;0.20;;;;;;;23.33;95.26;101237.13;10298792;28;20133;-77
2022/09/12 14:41:40;;;;;;;0.20;0.20;;;;;;;23.11;100.00;101232.31;10292355;28;20053;-77
2022/09/12 14:46:43;;;;;;;0.50;0.30;;;;;;;23.20;100.00;101222.50;10321224;28;20047;-77
2022/09/12 14:51:56;;;;;;;0.63;0.40;;;;;;;23.45;100.00;101223.69;10316480;28;20137;-77
2022/09/12 14:57:04;;;;;;;0.00;0.00;;;;;;;23.47;100.00;101217.53;10296038;28;20054;-77
2022/09/12 15:02:12;;;;;;;0.80;0.65;;;;;;;23.23;100.00;101225.91;10292485;28;20502;-77
2022/09/12 15:07:32;;;;;;;0.10;0.10;;;;;;;23.39;100.00;101226.47;10289614;28;20105;-77
2022/09/12 15:12:34;;;;;;;0.17;0.10;;;;;;;23.48;100.00;101221.91;10305160;28;20042;-78
2022/09/12 15:17:36;;;;;;;0.47;0.30;;;;;;;23.04;100.00;101214.94;10304554;28;20043;-78
2022/09/12 15:22:56;;;;;;;0.32;0.32;;;;;;;23.02;100.00;101208.84;10299438;28;20121;-77
2022/09/12 15:27:58;;;;;;;0.30;0.10;;;;;;;23.01;100.00;101195.75;10326029;28;20046;-76
2022/09/12 15:33:04;;;;;;;0.30;0.30;;;;;;;23.10;100.00;101199.03;10310118;28;20058;-77
2022/09/12 15:38:06;;;;;;;0.60;0.20;;;;;;;23.16;100.00;101186.66;10319513;28;20482;-77
2022/09/12 15:43:22;;;;;;;0.60;0.20;;;;;;;23.25;100.00;101168.09;10316400;28;20042;-78
2022/09/12 15:48:25;;;;;;;0.30;0.20;;;;;;;23.11;100.00;101173.59;10305571;28;20196;-78
2022/09/12 15:53:30;;;;;;;0.60;0.40;;;;;;;22.92;100.00;101175.78;10331440;28;20528;-78
2022/09/12 15:58:32;;;;;;;0.47;0.20;;;;;;;22.88;100.00;101174.13;10307796;28;20073;-78
2022/09/12 16:04:12;;;;;;;0.28;0.25;;;;;;;22.74;100.00;101172.66;10310222;28;20089;-78
2022/09/12 16:09:14;;;;;;;0.35;0.20;;;;;;;22.72;100.00;101169.19;10314379;28;20072;-77
2022/09/12 16:14:18;;;;;;;0.68;0.55;;;;;;;22.76;100.00;101162.97;10335569;28;20046;-77
2022/09/12 16:19:20;;;;;;;0.20;0.20;;;;;;;22.91;100.00;101158.28;10309890;28;20081;-77
2022/09/12 16:24:25;;;;;;;0.50;0.32;;;;;;;22.89;100.00;101146.94;10319073;28;20113;-78
2022/09/12 16:29:26;;;;;;;0.15;0.15;;;;;;;22.91;100.00;101146.03;10299259;28;20066;-77
2022/09/12 16:34:28;;;;;;;0.20;0.20;;;;;;;22.81;100.00;101134.84;10308898;28;20122;-77
2022/09/12 16:39:29;;;;;;;0.80;0.40;;;;;;;22.73;100.00;101128.91;10293910;28;20490;-77
2022/09/12 16:44:34;;;;;;;1.80;0.55;;;;;;;22.64;100.00;101121.22;10308236;28;20071;-77
2022/09/12 16:49:40;;;;;;;0.20;0.20;;;;;;;22.47;100.00;101116.31;10293164;28;20146;-78
2022/09/12 16:54:49;;;;;;;0.25;0.17;;;;;;;22.52;100.00;101122.31;10329817;28;20125;-77
2022/09/12 16:59:51;;;;;;;0.20;0.10;;;;;;;22.36;100.00;101116.50;10296540;28;20054;-77
2022/09/12 17:04:53;;;;;;;1.65;0.50;;;;;;;22.28;100.00;101107.91;10320941;28;20073;-77
2022/09/12 17:09:55;;;;;;;0.10;0.10;;;;;;;22.11;100.00;101109.09;10332359;28;20489;-77
2022/09/12 17:14:57;;;;;;;1.65;0.30;;;;;;;21.81;100.00;101119.25;10310453;28;20075;-77
2022/09/12 17:19:59;;;;;;;0.55;0.47;;;;;;;21.68;100.00;101122.97;10329792;28;20506;-77
2022/09/12 17:25:03;;;;;;;739.78;109.90;;;;;;;21.47;100.00;101125.03;10325041;28;20038;-77
2022/09/12 17:30:05;;;;;;;0.40;0.30;;;;;;;21.22;100.00;101109.69;10311721;28;20062;-77
2022/09/12 17:35:07;;;;;;;0.20;0.20;;;;;;;21.07;100.00;101104.69;10279179;28;20473;-77
2022/09/12 17:40:09;;;;;;;0.77;0.47;;;;;;;20.83;100.00;101101.50;10305288;28;20050;-77
2022/09/12 17:45:11;;;;;;;0.10;0.10;;;;;;;20.30;100.00;101114.34;10293630;28;20038;-77
2022/09/12 17:50:19;;;;;;;0.45;0.28;;;;;;;20.00;100.00;101112.91;10300498;28;20665;-77
2022/09/12 17:55:40;;;;;;;0.10;0.10;;;;;;;19.74;100.00;101116.63;10331221;28;20043;-76
2022/09/12 18:06:04;;;;;;;0.50;0.40;;;;;;;19.43;100.00;101112.53;10306652;28;20121;-76
2022/09/12 18:11:09;;;;;;;0.25;0.25;;;;;;;19.21;100.00;101117.03;10295271;28;20051;-75
2022/09/12 18:16:13;;;;;;;0.20;0.15;;;;;;;18.99;100.00;101111.06;10291026;28;20562;-75
2022/09/12 18:21:15;;;;;;;0.20;0.17;;;;;;;18.93;100.00;101111.97;10315906;28;20549;-76
2022/09/12 18:26:16;;;;;;;201.15;12.15;;;;;;;18.82;100.00;101127.66;10311447;28;20122;-75
2022/09/12 18:31:22;;;;;;;1999.90;999.90;;;;;;;18.65;100.00;101132.94;10314125;28;20157;-76
2022/09/12 18:36:24;;;;;;;0.20;0.10;;;;;;;18.63;100.00;101132.09;10315806;28;20057;-75
2022/09/12 18:41:27;;;;;;;0.80;0.43;;;;;;;18.36;100.00;101160.00;10327559;28;20050;-76
2022/09/12 18:46:31;;;;;;;1.80;0.17;;;;;;;18.12;100.00;101213.06;10312128;28;20063;-76
2022/09/12 18:51:34;;;;;;;51.42;4.38;;;;;;;17.96;100.00;101199.16;10323690;28;20059;-75
2022/09/12 18:56:38;;;;;;;35.92;6.30;;;;;;;17.86;100.00;101200.88;10297711;28;20059;-75
2022/09/12 19:01:44;;;;;;;1.02;0.40;;;;;;;17.75;100.00;101180.03;10307614;28;20082;-76
2022/09/12 19:06:47;;;;;;;0.57;0.57;;;;;;;17.82;100.00;101177.41;10298653;28;20699;-75
2022/09/12 19:11:48;;;;;;;1.15;0.28;;;;;;;17.56;100.00;101199.09;10298343;28;20501;-76
2022/09/12 19:16:51;;;;;;;0.30;0.30;;;;;;;17.54;100.00;101226.88;10305380;28;20046;-77
2022/09/12 19:21:54;;;;;;;0.00;0.00;;;;;;;17.59;100.00;101225.16;10305693;28;20125;-75
2022/09/12 19:26:56;;;;;;;0.47;0.25;;;;;;;17.47;100.00;101220.78;10322395;28;20070;-76
2022/09/12 19:31:59;;;;;;;0.10;0.10;;;;;;;17.35;100.00;101242.47;10306872;28;20104;-75
2022/09/12 19:37:02;;;;;;;0.20;0.20;;;;;;;17.33;100.00;101230.31;10290106;28;20494;-76
2022/09/12 19:42:04;;;;;;;0.35;0.35;;;;;;;17.15;100.00;101238.91;10301428;28;20123;-76
2022/09/12 19:47:06;;;;;;;0.47;0.40;;;;;;;17.22;100.00;101210.28;10299481;28;20106;-75
2022/09/12 19:52:07;;;;;;;1.52;0.57;;;;;;;17.12;100.00;101188.56;10298524;28;20097;-75
2022/09/12 19:57:11;;;;;;;0.75;0.43;;;;;;;16.93;100.00;101181.56;10311252;28;20063;-75
2022/09/12 20:02:13;;;;;;;0.95;0.43;;;;;;;16.87;100.00;101165.88;10313452;28;20073;-76
2022/09/12 20:07:15;;;;;;;0.32;0.30;;;;;;;16.71;100.00;101164.94;10291722;28;20039;-75
2022/09/12 20:12:17;;;;;;;0.28;0.20;;;;;;;16.64;100.00;101164.06;10296261;28;20039;-75
2022/09/12 20:17:19;;;;;;;2.13;0.93;;;;;;;16.79;100.00;101145.91;10286986;28;20118;-76
2022/09/12 20:22:25;;;;;;;0.40;0.40;;;;;;;16.80;100.00;101144.19;10282086;28;20047;-76
2022/09/12 20:27:27;;;;;;;0.10;0.10;;;;;;;16.57;100.00;101167.50;10281477;28;20492;-76
2022/09/12 20:32:29;;;;;;;3.13;2.47;;;;;;;16.30;100.00;101176.84;10301520;28;20121;-76
2022/09/12 20:37:34;;;;;;;263.33;62.00;;;;;;;16.25;100.00;101194.16;10286928;28;20490;-76
2022/09/12 20:42:36;;;;;;;77.28;24.13;;;;;;;16.12;100.00;101201.00;10282069;28;20126;-75
2022/09/12 20:47:38;;;;;;;1171.95;181.73;;;;;;;15.98;100.00;101219.94;10309174;28;20045;-76
2022/09/12 20:52:39;;;;;;;2.75;2.55;;;;;;;16.02;100.00;101309.19;10304450;28;20472;-76
2022/09/12 20:57:41;;;;;;;0.00;0.00;;;;;;;16.03;100.00;101316.16;10299247;28;20495;-76
2022/09/12 21:02:42;;;;;;;0.00;0.00;;;;;;;15.99;100.00;101294.47;10299347;28;20829;-76
2022/09/12 21:07:44;;;;;;;0.00;0.00;;;;;;;15.99;100.00;101272.78;10282517;28;20054;-76
2022/09/12 21:12:45;;;;;;;0.00;0.00;;;;;;;16.05;100.00;101266.78;10304459;28;20054;-76
2022/09/12 21:17:47;;;;;;;8.05;7.53;;;;;;;15.84;100.00;101305.56;10282042;28;20126;-75
2022/09/12 21:22:49;;;;;;;5.03;3.83;;;;;;;15.80;100.00;101308.06;10313695;28;20046;-76
2022/09/12 21:27:51;;;;;;;20.52;19.23;;;;;;;15.78;100.00;101302.00;10307024;28;20840;-75
2022/09/12 21:32:53;;;;;;;0.00;0.00;;;;;;;15.64;100.00;101323.47;10297834;28;20625;-76
2022/09/12 21:37:54;;;;;;;0.00;0.00;;;;;;;15.58;100.00;101344.19;10308164;28;20047;-76
2022/09/12 21:42:57;;;;;;;0.35;0.35;;;;;;;15.55;100.00;101355.41;10313683;28;20066;-76
2022/09/12 21:47:59;;;;;;;0.00;0.00;;;;;;;15.55;100.00;101383.13;10299965;28;20818;-75
2022/09/12 21:53:00;;;;;;;0.10;0.10;;;;;;;15.48;100.00;101371.78;10318782;28;20070;-76
2022/09/12 21:58:02;;;;;;;1.95;1.85;;;;;;;15.57;100.00;101357.16;10311986;28;20034;-76
2022/09/12 22:03:03;;;;;;;0.10;0.10;;;;;;;15.46;100.00;101338.84;10307087;28;20061;-76
2022/09/12 22:08:09;;;;;;;0.00;0.00;;;;;;;15.40;100.00;101339.63;10318477;28;20047;-76
2022/09/12 22:13:11;;;;;;;0.10;0.10;;;;;;;15.36;100.00;101364.69;10316332;28;20062;-76
2022/09/12 22:18:12;;;;;;;0.10;0.10;;;;;;;15.37;100.00;101407.13;10310407;28;20047;-76
2022/09/12 22:28:34;;;;;;;;;;;;;;;15.30;100.00;101420.84;10311294;28;20042;-76
2022/09/12 22:33:36;;;;;;;0.00;0.00;;;;;;;15.30;100.00;101389.72;10344651;28;20032;-76
2022/09/12 22:38:37;;;;;;;295.05;63.75;;;;;;;15.43;100.00;101380.34;10319291;28;20486;-76
2022/09/12 22:43:40;;;;;;;23.52;20.73;;;;;;;15.19;100.00;101372.25;10337725;28;20040;-76
2022/09/12 22:48:42;;;;;;;0.50;0.50;;;;;;;15.34;100.00;101381.09;10317278;28;20438;-76
2022/09/12 22:53:43;;;;;;;75.95;28.38;;;;;;;15.30;100.00;101384.50;10341205;28;20067;-75
2022/09/12 22:58:45;;;;;;;9.20;8.50;;;;;;;15.37;100.00;101396.72;10335360;28;20409;-75
2022/09/12 23:03:47;;;;;;;7.55;6.85;;;;;;;15.40;100.00;101381.16;10342767;28;20478;-76
2022/09/12 23:08:51;;;;;;;0.73;0.73;;;;;;;15.54;100.00;101348.47;10321537;28;20030;-75
2022/09/12 23:13:52;;;;;;;0.55;0.40;;;;;;;15.55;100.00;101316.47;10336291;28;20387;-76
2022/09/12 23:18:54;;;;;;;0.65;0.38;;;;;;;15.78;100.00;101300.25;10328562;28;20050;-76
2022/09/12 23:23:55;;;;;;;1.50;0.93;;;;;;;15.72;100.00;101292.41;10326793;28;20137;-76
2022/09/12 23:29:01;;;;;;;0.68;0.38;;;;;;;15.75;100.00;101325.34;10305064;28;20071;-76
2022/09/12 23:34:04;;;;;;;1.23;0.30;;;;;;;15.62;100.00;101356.38;10338031;28;20060;-76